TDCF/DCF METAR and TAF weather

Enter ICAO airport designator
Station Type Date Time Source
TDCF METAR 2020/08/13 20:00 UTC NOAA

TDCF 132000Z 31003KT 9999 BKN019 31/25 Q1010


Station Type Date Time Source
TDCF Decoded METAR 2020/08/13 20:00 UTC NOAA

Canefield Airport, Dominica (TDCF) 15-32N 061-24W 5M
Aug 13, 2020 - 04:00 PM EDT / 2020.08.13 2000 UTC
Wind: from the NW (310 degrees) at 3 MPH (3 KT):0
Visibility: greater than 7 mile(s):0
Sky conditions: mostly cloudy
Temperature: 87 F (31 C)
Heat index: 97.5 F (36.4 C):1
Dew Point: 77 F (25 C)
Relative Humidity: 70%
Pressure (altimeter): 29.83 in. Hg (1010 hPa)
ob: TDCF 132000Z 31003KT 9999 BKN019 31/25 Q1010
cycle: 20

Station Type Date Time Source
TDCF TAF 2012/05/01 18:15 UTC NOAA

TAF TDCF 011600Z 0118/0218 110010KT 9999 SCT018 BKN030
TEMPO 0118/0206 6000 SHRA BKN014 BKN070

Example: see airport list